sensor_id;sensor_type;location;lat;lon;timestamp;P1;durP1;ratioP1;P2;durP2;ratioP2
20884;SDS011;10602;48.000;9.654;2023-07-13T00:00:30;5.60;;;5.00;;
20884;SDS011;10602;48.000;9.654;2023-07-13T00:02:58;7.23;;;4.63;;
20884;SDS011;10602;48.000;9.654;2023-07-13T00:05:25;8.93;;;5.03;;
20884;SDS011;10602;48.000;9.654;2023-07-13T00:07:53;6.83;;;4.57;;
20884;SDS011;10602;48.000;9.654;2023-07-13T00:10:21;8.23;;;4.60;;
20884;SDS011;10602;48.000;9.654;2023-07-13T00:12:48;5.50;;;4.70;;
20884;SDS011;10602;48.000;9.654;2023-07-13T00:15:25;6.67;;;5.17;;
20884;SDS011;10602;48.000;9.654;2023-07-13T00:17:52;6.87;;;4.80;;
20884;SDS011;10602;48.000;9.654;2023-07-13T00:20:22;6.13;;;4.37;;
20884;SDS011;10602;48.000;9.654;2023-07-13T00:22:51;10.20;;;4.80;;
20884;SDS011;10602;48.000;9.654;2023-07-13T00:25:19;6.07;;;4.53;;
20884;SDS011;10602;48.000;9.654;2023-07-13T00:27:49;8.67;;;5.13;;
20884;SDS011;10602;48.000;9.654;2023-07-13T00:30:17;5.93;;;4.00;;
20884;SDS011;10602;48.000;9.654;2023-07-13T00:32:45;6.23;;;4.70;;
20884;SDS011;10602;48.000;9.654;2023-07-13T00:35:14;7.10;;;4.60;;
20884;SDS011;10602;48.000;9.654;2023-07-13T00:37:42;6.23;;;4.37;;
20884;SDS011;10602;48.000;9.654;2023-07-13T00:40:10;6.97;;;4.47;;
20884;SDS011;10602;48.000;9.654;2023-07-13T00:42:39;6.77;;;4.53;;
20884;SDS011;10602;48.000;9.654;2023-07-13T00:47:44;6.83;;;4.53;;
20884;SDS011;10602;48.000;9.654;2023-07-13T00:50:12;6.10;;;4.87;;
20884;SDS011;10602;48.000;9.654;2023-07-13T00:52:42;10.17;;;4.87;;
20884;SDS011;10602;48.000;9.654;2023-07-13T00:55:12;5.70;;;4.10;;
20884;SDS011;10602;48.000;9.654;2023-07-13T00:57:41;6.07;;;4.20;;
20884;SDS011;10602;48.000;9.654;2023-07-13T01:00:09;6.67;;;5.00;;
20884;SDS011;10602;48.000;9.654;2023-07-13T01:02:39;7.17;;;4.70;;
20884;SDS011;10602;48.000;9.654;2023-07-13T01:05:13;6.57;;;4.33;;
20884;SDS011;10602;48.000;9.654;2023-07-13T01:07:41;6.03;;;4.60;;
20884;SDS011;10602;48.000;9.654;2023-07-13T01:10:11;7.80;;;5.03;;
20884;SDS011;10602;48.000;9.654;2023-07-13T01:12:39;6.30;;;4.97;;
20884;SDS011;10602;48.000;9.654;2023-07-13T01:17:57;8.40;;;4.97;;
20884;SDS011;10602;48.000;9.654;2023-07-13T01:20:24;12.57;;;5.10;;
20884;SDS011;10602;48.000;9.654;2023-07-13T01:22:52;7.57;;;4.30;;
20884;SDS011;10602;48.000;9.654;2023-07-13T01:25:19;6.27;;;4.50;;
20884;SDS011;10602;48.000;9.654;2023-07-13T01:27:47;7.33;;;4.67;;
20884;SDS011;10602;48.000;9.654;2023-07-13T01:30:15;7.87;;;5.47;;
20884;SDS011;10602;48.000;9.654;2023-07-13T01:32:42;8.50;;;4.83;;
20884;SDS011;10602;48.000;9.654;2023-07-13T01:35:10;7.67;;;5.13;;
20884;SDS011;10602;48.000;9.654;2023-07-13T01:37:38;6.13;;;4.50;;
20884;SDS011;10602;48.000;9.654;2023-07-13T01:40:06;6.27;;;4.57;;
20884;SDS011;10602;48.000;9.654;2023-07-13T01:42:34;6.00;;;4.50;;
20884;SDS011;10602;48.000;9.654;2023-07-13T01:45:02;7.40;;;4.40;;
20884;SDS011;10602;48.000;9.654;2023-07-13T01:47:29;5.20;;;4.30;;
20884;SDS011;10602;48.000;9.654;2023-07-13T01:49:57;8.03;;;4.50;;
20884;SDS011;10602;48.000;9.654;2023-07-13T01:52:24;6.17;;;4.50;;
20884;SDS011;10602;48.000;9.654;2023-07-13T01:54:51;9.70;;;4.27;;
20884;SDS011;10602;48.000;9.654;2023-07-13T01:57:19;6.63;;;4.73;;
20884;SDS011;10602;48.000;9.654;2023-07-13T01:59:47;8.20;;;5.03;;
20884;SDS011;10602;48.000;9.654;2023-07-13T02:02:14;6.47;;;4.87;;
20884;SDS011;10602;48.000;9.654;2023-07-13T02:04:42;7.07;;;5.10;;
20884;SDS011;10602;48.000;9.654;2023-07-13T02:07:09;7.53;;;4.90;;
20884;SDS011;10602;48.000;9.654;2023-07-13T02:09:37;8.60;;;4.77;;
20884;SDS011;10602;48.000;9.654;2023-07-13T02:12:05;6.10;;;5.10;;
20884;SDS011;10602;48.000;9.654;2023-07-13T02:14:33;10.27;;;5.10;;
20884;SDS011;10602;48.000;9.654;2023-07-13T02:17:00;8.40;;;4.93;;
20884;SDS011;10602;48.000;9.654;2023-07-13T02:19:28;7.43;;;4.90;;
20884;SDS011;10602;48.000;9.654;2023-07-13T02:21:55;7.80;;;5.13;;
20884;SDS011;10602;48.000;9.654;2023-07-13T02:24:23;8.60;;;5.27;;
20884;SDS011;10602;48.000;9.654;2023-07-13T02:26:51;11.50;;;6.37;;
20884;SDS011;10602;48.000;9.654;2023-07-13T02:29:18;14.03;;;8.20;;
20884;SDS011;10602;48.000;9.654;2023-07-13T02:31:46;15.07;;;8.07;;
20884;SDS011;10602;48.000;9.654;2023-07-13T02:34:13;11.90;;;7.13;;
20884;SDS011;10602;48.000;9.654;2023-07-13T02:36:41;11.07;;;5.50;;
20884;SDS011;10602;48.000;9.654;2023-07-13T02:39:08;8.23;;;5.37;;
20884;SDS011;10602;48.000;9.654;2023-07-13T02:41:38;6.47;;;5.30;;
20884;SDS011;10602;48.000;9.654;2023-07-13T02:44:06;6.47;;;4.60;;
20884;SDS011;10602;48.000;9.654;2023-07-13T02:46:35;7.97;;;5.43;;
20884;SDS011;10602;48.000;9.654;2023-07-13T02:49:03;10.33;;;5.43;;
20884;SDS011;10602;48.000;9.654;2023-07-13T02:51:31;7.60;;;5.00;;
20884;SDS011;10602;48.000;9.654;2023-07-13T02:54:00;8.40;;;5.60;;
20884;SDS011;10602;48.000;9.654;2023-07-13T02:56:29;9.30;;;5.17;;
20884;SDS011;10602;48.000;9.654;2023-07-13T02:58:57;9.30;;;5.03;;
20884;SDS011;10602;48.000;9.654;2023-07-13T03:01:25;7.40;;;4.83;;
20884;SDS011;10602;48.000;9.654;2023-07-13T03:03:53;8.80;;;5.50;;
20884;SDS011;10602;48.000;9.654;2023-07-13T03:06:21;7.77;;;5.27;;
20884;SDS011;10602;48.000;9.654;2023-07-13T03:08:48;8.10;;;4.87;;
20884;SDS011;10602;48.000;9.654;2023-07-13T03:11:17;8.70;;;5.17;;
20884;SDS011;10602;48.000;9.654;2023-07-13T03:13:46;6.47;;;4.93;;
20884;SDS011;10602;48.000;9.654;2023-07-13T03:16:14;7.03;;;4.60;;
20884;SDS011;10602;48.000;9.654;2023-07-13T03:18:42;8.00;;;5.43;;
20884;SDS011;10602;48.000;9.654;2023-07-13T03:21:10;6.00;;;4.90;;
20884;SDS011;10602;48.000;9.654;2023-07-13T03:23:38;13.20;;;5.23;;
20884;SDS011;10602;48.000;9.654;2023-07-13T03:26:09;7.47;;;5.07;;
20884;SDS011;10602;48.000;9.654;2023-07-13T03:28:39;9.77;;;5.40;;
20884;SDS011;10602;48.000;9.654;2023-07-13T03:31:12;8.37;;;5.47;;
20884;SDS011;10602;48.000;9.654;2023-07-13T03:33:41;5.83;;;5.10;;
20884;SDS011;10602;48.000;9.654;2023-07-13T03:36:12;9.40;;;5.40;;
20884;SDS011;10602;48.000;9.654;2023-07-13T03:38:40;9.13;;;5.60;;
20884;SDS011;10602;48.000;9.654;2023-07-13T03:41:07;6.90;;;5.57;;
20884;SDS011;10602;48.000;9.654;2023-07-13T03:43:35;10.33;;;6.13;;
20884;SDS011;10602;48.000;9.654;2023-07-13T03:46:02;9.77;;;5.97;;
20884;SDS011;10602;48.000;9.654;2023-07-13T03:48:29;7.23;;;6.13;;
20884;SDS011;10602;48.000;9.654;2023-07-13T03:50:57;8.57;;;5.97;;
20884;SDS011;10602;48.000;9.654;2023-07-13T03:53:25;7.20;;;5.63;;
20884;SDS011;10602;48.000;9.654;2023-07-13T03:55:52;9.13;;;5.67;;
20884;SDS011;10602;48.000;9.654;2023-07-13T03:58:24;8.53;;;5.47;;
20884;SDS011;10602;48.000;9.654;2023-07-13T04:00:53;7.97;;;5.23;;
20884;SDS011;10602;48.000;9.654;2023-07-13T04:03:21;11.03;;;6.40;;
20884;SDS011;10602;48.000;9.654;2023-07-13T04:05:49;6.90;;;4.83;;
20884;SDS011;10602;48.000;9.654;2023-07-13T04:08:16;10.07;;;5.70;;
20884;SDS011;10602;48.000;9.654;2023-07-13T04:10:44;9.53;;;4.97;;
20884;SDS011;10602;48.000;9.654;2023-07-13T04:13:11;8.63;;;5.20;;
20884;SDS011;10602;48.000;9.654;2023-07-13T04:15:40;8.97;;;5.67;;
20884;SDS011;10602;48.000;9.654;2023-07-13T04:18:08;9.50;;;5.70;;
20884;SDS011;10602;48.000;9.654;2023-07-13T04:20:35;8.03;;;5.27;;
20884;SDS011;10602;48.000;9.654;2023-07-13T04:23:03;7.73;;;5.40;;
20884;SDS011;10602;48.000;9.654;2023-07-13T04:25:30;9.00;;;5.13;;
20884;SDS011;10602;48.000;9.654;2023-07-13T04:27:58;8.47;;;5.27;;
20884;SDS011;10602;48.000;9.654;2023-07-13T04:30:25;8.70;;;5.33;;
20884;SDS011;10602;48.000;9.654;2023-07-13T04:32:53;7.43;;;5.00;;
20884;SDS011;10602;48.000;9.654;2023-07-13T04:35:20;8.17;;;5.33;;
20884;SDS011;10602;48.000;9.654;2023-07-13T04:37:49;9.47;;;5.60;;
20884;SDS011;10602;48.000;9.654;2023-07-13T04:40:17;7.07;;;5.53;;
20884;SDS011;10602;48.000;9.654;2023-07-13T04:42:45;10.53;;;6.20;;
20884;SDS011;10602;48.000;9.654;2023-07-13T04:45:13;9.83;;;6.40;;
20884;SDS011;10602;48.000;9.654;2023-07-13T04:47:41;9.67;;;5.97;;
20884;SDS011;10602;48.000;9.654;2023-07-13T04:50:09;7.60;;;5.23;;
20884;SDS011;10602;48.000;9.654;2023-07-13T04:52:37;8.23;;;5.40;;
20884;SDS011;10602;48.000;9.654;2023-07-13T04:55:04;6.93;;;5.20;;
20884;SDS011;10602;48.000;9.654;2023-07-13T04:57:32;8.97;;;5.83;;
20884;SDS011;10602;48.000;9.654;2023-07-13T04:59:59;6.83;;;5.20;;
20884;SDS011;10602;48.000;9.654;2023-07-13T05:02:28;7.23;;;4.73;;
20884;SDS011;10602;48.000;9.654;2023-07-13T05:04:57;7.23;;;4.73;;
20884;SDS011;10602;48.000;9.654;2023-07-13T05:07:25;7.07;;;4.73;;
20884;SDS011;10602;48.000;9.654;2023-07-13T05:09:53;5.40;;;4.70;;
20884;SDS011;10602;48.000;9.654;2023-07-13T05:12:20;6.63;;;4.77;;
20884;SDS011;10602;48.000;9.654;2023-07-13T05:14:48;9.37;;;4.73;;
20884;SDS011;10602;48.000;9.654;2023-07-13T05:17:15;5.77;;;4.57;;
20884;SDS011;10602;48.000;9.654;2023-07-13T05:19:43;7.93;;;4.13;;
20884;SDS011;10602;48.000;9.654;2023-07-13T05:22:10;6.37;;;4.27;;
20884;SDS011;10602;48.000;9.654;2023-07-13T05:24:38;5.73;;;3.77;;
20884;SDS011;10602;48.000;9.654;2023-07-13T05:27:05;4.40;;;4.00;;
20884;SDS011;10602;48.000;9.654;2023-07-13T05:29:33;5.23;;;4.10;;
20884;SDS011;10602;48.000;9.654;2023-07-13T05:32:00;6.50;;;3.87;;
20884;SDS011;10602;48.000;9.654;2023-07-13T05:34:28;5.23;;;3.90;;
20884;SDS011;10602;48.000;9.654;2023-07-13T05:36:55;7.20;;;4.13;;
20884;SDS011;10602;48.000;9.654;2023-07-13T05:39:23;5.30;;;3.90;;
20884;SDS011;10602;48.000;9.654;2023-07-13T05:41:51;4.60;;;3.27;;
20884;SDS011;10602;48.000;9.654;2023-07-13T05:44:19;5.77;;;3.10;;
20884;SDS011;10602;48.000;9.654;2023-07-13T05:46:47;6.13;;;3.33;;
20884;SDS011;10602;48.000;9.654;2023-07-13T05:49:14;4.63;;;3.10;;
20884;SDS011;10602;48.000;9.654;2023-07-13T05:51:41;4.37;;;2.70;;
20884;SDS011;10602;48.000;9.654;2023-07-13T05:54:09;5.27;;;2.80;;
20884;SDS011;10602;48.000;9.654;2023-07-13T05:56:37;5.67;;;2.27;;
20884;SDS011;10602;48.000;9.654;2023-07-13T05:59:04;6.47;;;2.90;;
20884;SDS011;10602;48.000;9.654;2023-07-13T06:01:32;6.07;;;2.90;;
20884;SDS011;10602;48.000;9.654;2023-07-13T06:03:59;5.23;;;2.60;;
20884;SDS011;10602;48.000;9.654;2023-07-13T06:06:27;4.50;;;2.63;;
20884;SDS011;10602;48.000;9.654;2023-07-13T06:08:55;6.20;;;2.80;;
20884;SDS011;10602;48.000;9.654;2023-07-13T06:11:23;3.57;;;2.57;;
20884;SDS011;10602;48.000;9.654;2023-07-13T06:13:52;4.90;;;2.33;;
20884;SDS011;10602;48.000;9.654;2023-07-13T06:16:19;3.77;;;2.47;;
20884;SDS011;10602;48.000;9.654;2023-07-13T06:18:47;3.27;;;2.40;;
20884;SDS011;10602;48.000;9.654;2023-07-13T06:21:16;3.43;;;2.20;;
20884;SDS011;10602;48.000;9.654;2023-07-13T06:23:45;3.80;;;2.33;;
20884;SDS011;10602;48.000;9.654;2023-07-13T06:26:14;5.57;;;2.30;;
20884;SDS011;10602;48.000;9.654;2023-07-13T06:28:42;3.70;;;2.33;;
20884;SDS011;10602;48.000;9.654;2023-07-13T06:31:11;4.83;;;2.20;;
20884;SDS011;10602;48.000;9.654;2023-07-13T06:33:40;4.10;;;2.20;;
20884;SDS011;10602;48.000;9.654;2023-07-13T06:36:07;3.60;;;2.00;;
20884;SDS011;10602;48.000;9.654;2023-07-13T06:38:35;10.93;;;2.20;;
20884;SDS011;10602;48.000;9.654;2023-07-13T06:41:03;6.90;;;2.17;;
20884;SDS011;10602;48.000;9.654;2023-07-13T06:43:32;2.97;;;1.83;;
20884;SDS011;10602;48.000;9.654;2023-07-13T06:45:59;3.93;;;2.00;;
20884;SDS011;10602;48.000;9.654;2023-07-13T06:48:31;5.50;;;1.90;;
20884;SDS011;10602;48.000;9.654;2023-07-13T06:50:59;3.00;;;2.20;;
20884;SDS011;10602;48.000;9.654;2023-07-13T06:53:28;3.00;;;2.00;;
20884;SDS011;10602;48.000;9.654;2023-07-13T06:55:55;2.40;;;1.80;;
20884;SDS011;10602;48.000;9.654;2023-07-13T06:58:23;3.70;;;2.00;;
20884;SDS011;10602;48.000;9.654;2023-07-13T07:00:51;3.63;;;2.27;;
20884;SDS011;10602;48.000;9.654;2023-07-13T07:03:19;4.87;;;1.97;;
20884;SDS011;10602;48.000;9.654;2023-07-13T07:05:48;4.43;;;2.00;;
20884;SDS011;10602;48.000;9.654;2023-07-13T07:08:16;6.27;;;2.30;;
20884;SDS011;10602;48.000;9.654;2023-07-13T07:10:43;2.83;;;1.93;;
20884;SDS011;10602;48.000;9.654;2023-07-13T07:13:11;3.97;;;1.83;;
20884;SDS011;10602;48.000;9.654;2023-07-13T07:15:38;5.83;;;1.90;;
20884;SDS011;10602;48.000;9.654;2023-07-13T07:18:06;4.87;;;1.97;;
20884;SDS011;10602;48.000;9.654;2023-07-13T07:20:33;3.77;;;1.80;;
20884;SDS011;10602;48.000;9.654;2023-07-13T07:23:01;4.43;;;2.10;;
20884;SDS011;10602;48.000;9.654;2023-07-13T07:25:28;3.60;;;2.00;;
20884;SDS011;10602;48.000;9.654;2023-07-13T07:27:58;3.90;;;1.90;;
20884;SDS011;10602;48.000;9.654;2023-07-13T07:30:25;4.23;;;1.90;;
20884;SDS011;10602;48.000;9.654;2023-07-13T07:32:53;4.33;;;1.80;;
20884;SDS011;10602;48.000;9.654;2023-07-13T07:35:20;3.00;;;1.90;;
20884;SDS011;10602;48.000;9.654;2023-07-13T07:37:48;3.77;;;2.00;;
20884;SDS011;10602;48.000;9.654;2023-07-13T07:40:15;3.90;;;1.70;;
20884;SDS011;10602;48.000;9.654;2023-07-13T07:42:43;3.43;;;1.80;;
20884;SDS011;10602;48.000;9.654;2023-07-13T07:45:10;4.93;;;2.07;;
20884;SDS011;10602;48.000;9.654;2023-07-13T07:47:39;4.63;;;2.07;;
20884;SDS011;10602;48.000;9.654;2023-07-13T07:50:07;4.63;;;1.87;;
20884;SDS011;10602;48.000;9.654;2023-07-13T07:52:34;3.53;;;2.10;;
20884;SDS011;10602;48.000;9.654;2023-07-13T07:55:03;2.07;;;1.87;;
20884;SDS011;10602;48.000;9.654;2023-07-13T07:57:32;2.43;;;2.00;;
20884;SDS011;10602;48.000;9.654;2023-07-13T08:00:00;3.30;;;2.40;;
20884;SDS011;10602;48.000;9.654;2023-07-13T08:02:27;3.33;;;2.00;;
20884;SDS011;10602;48.000;9.654;2023-07-13T08:04:55;3.47;;;1.80;;
20884;SDS011;10602;48.000;9.654;2023-07-13T08:07:22;2.90;;;1.90;;
20884;SDS011;10602;48.000;9.654;2023-07-13T08:09:54;4.20;;;2.20;;
20884;SDS011;10602;48.000;9.654;2023-07-13T08:12:21;4.67;;;1.90;;
20884;SDS011;10602;48.000;9.654;2023-07-13T08:14:49;4.90;;;1.90;;
20884;SDS011;10602;48.000;9.654;2023-07-13T08:17:19;3.47;;;2.00;;
20884;SDS011;10602;48.000;9.654;2023-07-13T08:19:47;5.53;;;1.90;;
20884;SDS011;10602;48.000;9.654;2023-07-13T08:22:14;4.03;;;1.67;;
20884;SDS011;10602;48.000;9.654;2023-07-13T08:24:42;5.37;;;1.87;;
20884;SDS011;10602;48.000;9.654;2023-07-13T08:27:12;4.13;;;2.07;;
20884;SDS011;10602;48.000;9.654;2023-07-13T08:29:40;3.13;;;2.00;;
20884;SDS011;10602;48.000;9.654;2023-07-13T08:32:08;4.53;;;2.50;;
20884;SDS011;10602;48.000;9.654;2023-07-13T08:34:36;3.30;;;2.13;;
20884;SDS011;10602;48.000;9.654;2023-07-13T08:37:04;3.67;;;2.07;;
20884;SDS011;10602;48.000;9.654;2023-07-13T08:39:32;4.50;;;2.20;;
20884;SDS011;10602;48.000;9.654;2023-07-13T08:42:01;4.40;;;1.97;;
20884;SDS011;10602;48.000;9.654;2023-07-13T08:44:36;4.57;;;1.90;;
20884;SDS011;10602;48.000;9.654;2023-07-13T08:47:10;3.87;;;1.73;;
20884;SDS011;10602;48.000;9.654;2023-07-13T08:49:40;4.17;;;1.80;;
20884;SDS011;10602;48.000;9.654;2023-07-13T08:52:13;3.33;;;1.90;;
20884;SDS011;10602;48.000;9.654;2023-07-13T08:54:43;4.27;;;1.87;;
20884;SDS011;10602;48.000;9.654;2023-07-13T08:57:18;4.17;;;2.00;;
20884;SDS011;10602;48.000;9.654;2023-07-13T08:59:43;2.80;;;1.80;;
20884;SDS011;10602;48.000;9.654;2023-07-13T09:02:20;3.87;;;1.87;;
20884;SDS011;10602;48.000;9.654;2023-07-13T09:05:03;5.37;;;2.00;;
20884;SDS011;10602;48.000;9.654;2023-07-13T09:07:40;3.67;;;2.00;;
20884;SDS011;10602;48.000;9.654;2023-07-13T09:12:46;3.47;;;2.00;;
20884;SDS011;10602;48.000;9.654;2023-07-13T09:15:23;4.60;;;1.90;;
20884;SDS011;10602;48.000;9.654;2023-07-13T09:17:59;5.57;;;1.97;;
20884;SDS011;10602;48.000;9.654;2023-07-13T09:22:59;5.47;;;2.17;;
20884;SDS011;10602;48.000;9.654;2023-07-13T09:25:33;3.80;;;2.13;;
20884;SDS011;10602;48.000;9.654;2023-07-13T09:28:04;4.33;;;2.37;;
20884;SDS011;10602;48.000;9.654;2023-07-13T09:33:21;3.60;;;2.40;;
20884;SDS011;10602;48.000;9.654;2023-07-13T09:35:49;4.03;;;2.20;;
20884;SDS011;10602;48.000;9.654;2023-07-13T09:38:18;4.03;;;2.30;;
20884;SDS011;10602;48.000;9.654;2023-07-13T09:41:11;4.37;;;2.03;;
20884;SDS011;10602;48.000;9.654;2023-07-13T09:44:00;3.47;;;1.90;;
20884;SDS011;10602;48.000;9.654;2023-07-13T09:46:26;3.60;;;1.80;;
20884;SDS011;10602;48.000;9.654;2023-07-13T09:48:55;2.90;;;1.90;;
20884;SDS011;10602;48.000;9.654;2023-07-13T09:51:23;4.13;;;1.97;;
20884;SDS011;10602;48.000;9.654;2023-07-13T09:53:50;3.53;;;1.77;;
20884;SDS011;10602;48.000;9.654;2023-07-13T09:56:21;2.70;;;2.10;;
20884;SDS011;10602;48.000;9.654;2023-07-13T09:58:52;4.13;;;2.20;;
20884;SDS011;10602;48.000;9.654;2023-07-13T10:01:33;2.97;;;2.00;;
20884;SDS011;10602;48.000;9.654;2023-07-13T10:04:12;4.13;;;2.10;;
20884;SDS011;10602;48.000;9.654;2023-07-13T10:06:40;3.10;;;1.97;;
20884;SDS011;10602;48.000;9.654;2023-07-13T10:09:08;6.07;;;2.13;;
20884;SDS011;10602;48.000;9.654;2023-07-13T10:11:37;5.93;;;2.10;;
20884;SDS011;10602;48.000;9.654;2023-07-13T10:14:11;2.60;;;2.00;;
20884;SDS011;10602;48.000;9.654;2023-07-13T10:16:44;3.93;;;2.23;;
20884;SDS011;10602;48.000;9.654;2023-07-13T10:19:14;2.47;;;1.97;;
20884;SDS011;10602;48.000;9.654;2023-07-13T10:21:52;5.10;;;2.00;;
20884;SDS011;10602;48.000;9.654;2023-07-13T10:24:23;5.20;;;2.20;;
20884;SDS011;10602;48.000;9.654;2023-07-13T10:26:53;3.50;;;2.07;;
20884;SDS011;10602;48.000;9.654;2023-07-13T10:29:22;4.63;;;2.10;;
20884;SDS011;10602;48.000;9.654;2023-07-13T10:31:53;3.97;;;1.97;;
20884;SDS011;10602;48.000;9.654;2023-07-13T10:34:22;4.90;;;2.13;;
20884;SDS011;10602;48.000;9.654;2023-07-13T10:36:51;5.07;;;1.97;;
20884;SDS011;10602;48.000;9.654;2023-07-13T10:39:20;5.30;;;2.10;;
20884;SDS011;10602;48.000;9.654;2023-07-13T10:42:04;3.17;;;1.90;;
20884;SDS011;10602;48.000;9.654;2023-07-13T10:44:30;3.13;;;2.20;;
20884;SDS011;10602;48.000;9.654;2023-07-13T10:47:07;4.33;;;2.00;;
20884;SDS011;10602;48.000;9.654;2023-07-13T10:49:33;3.47;;;2.10;;
20884;SDS011;10602;48.000;9.654;2023-07-13T10:52:02;4.27;;;2.30;;
20884;SDS011;10602;48.000;9.654;2023-07-13T10:54:31;3.37;;;2.00;;
20884;SDS011;10602;48.000;9.654;2023-07-13T10:59:47;3.17;;;2.10;;
20884;SDS011;10602;48.000;9.654;2023-07-13T11:02:22;2.83;;;1.97;;
20884;SDS011;10602;48.000;9.654;2023-07-13T11:04:52;3.97;;;1.80;;
20884;SDS011;10602;48.000;9.654;2023-07-13T11:07:28;3.53;;;1.93;;
20884;SDS011;10602;48.000;9.654;2023-07-13T11:09:58;3.07;;;1.97;;
20884;SDS011;10602;48.000;9.654;2023-07-13T11:12:40;4.00;;;1.90;;
20884;SDS011;10602;48.000;9.654;2023-07-13T11:15:26;3.60;;;2.10;;
20884;SDS011;10602;48.000;9.654;2023-07-13T11:17:55;2.60;;;1.70;;
20884;SDS011;10602;48.000;9.654;2023-07-13T11:20:33;2.87;;;2.00;;
20884;SDS011;10602;48.000;9.654;2023-07-13T11:23:08;3.30;;;1.67;;
20884;SDS011;10602;48.000;9.654;2023-07-13T11:25:38;3.77;;;1.70;;
20884;SDS011;10602;48.000;9.654;2023-07-13T11:30:46;3.03;;;1.57;;
20884;SDS011;10602;48.000;9.654;2023-07-13T11:33:22;2.40;;;1.77;;
20884;SDS011;10602;48.000;9.654;2023-07-13T11:36:03;3.70;;;1.57;;
20884;SDS011;10602;48.000;9.654;2023-07-13T11:38:36;3.23;;;1.80;;
20884;SDS011;10602;48.000;9.654;2023-07-13T11:41:10;2.40;;;1.80;;
20884;SDS011;10602;48.000;9.654;2023-07-13T11:43:35;3.40;;;1.87;;
20884;SDS011;10602;48.000;9.654;2023-07-13T11:46:14;3.60;;;1.80;;
20884;SDS011;10602;48.000;9.654;2023-07-13T11:48:52;5.30;;;1.97;;
20884;SDS011;10602;48.000;9.654;2023-07-13T11:51:21;2.93;;;1.90;;
20884;SDS011;10602;48.000;9.654;2023-07-13T11:53:58;3.33;;;2.00;;
20884;SDS011;10602;48.000;9.654;2023-07-13T11:56:30;4.17;;;1.63;;
20884;SDS011;10602;48.000;9.654;2023-07-13T11:58:59;4.37;;;1.77;;
20884;SDS011;10602;48.000;9.654;2023-07-13T12:01:30;3.53;;;1.73;;
20884;SDS011;10602;48.000;9.654;2023-07-13T12:03:59;2.80;;;2.00;;
20884;SDS011;10602;48.000;9.654;2023-07-13T12:06:29;3.57;;;2.00;;
20884;SDS011;10602;48.000;9.654;2023-07-13T12:08:59;4.27;;;1.97;;
20884;SDS011;10602;48.000;9.654;2023-07-13T12:11:29;3.20;;;1.90;;
20884;SDS011;10602;48.000;9.654;2023-07-13T12:13:58;4.00;;;2.23;;
20884;SDS011;10602;48.000;9.654;2023-07-13T12:16:28;2.67;;;2.00;;
20884;SDS011;10602;48.000;9.654;2023-07-13T12:19:00;4.03;;;1.97;;
20884;SDS011;10602;48.000;9.654;2023-07-13T12:21:33;5.10;;;2.13;;
20884;SDS011;10602;48.000;9.654;2023-07-13T12:24:02;4.07;;;1.97;;
20884;SDS011;10602;48.000;9.654;2023-07-13T12:26:31;3.90;;;2.23;;
20884;SDS011;10602;48.000;9.654;2023-07-13T12:29:00;4.10;;;1.90;;
20884;SDS011;10602;48.000;9.654;2023-07-13T12:31:33;4.07;;;2.07;;
20884;SDS011;10602;48.000;9.654;2023-07-13T12:34:14;3.60;;;1.83;;
20884;SDS011;10602;48.000;9.654;2023-07-13T12:36:48;3.73;;;1.80;;
20884;SDS011;10602;48.000;9.654;2023-07-13T12:39:21;4.60;;;2.07;;
20884;SDS011;10602;48.000;9.654;2023-07-13T12:41:54;2.73;;;1.70;;
20884;SDS011;10602;48.000;9.654;2023-07-13T12:44:33;3.63;;;2.00;;
20884;SDS011;10602;48.000;9.654;2023-07-13T12:47:03;3.07;;;1.90;;
20884;SDS011;10602;48.000;9.654;2023-07-13T12:49:34;3.07;;;1.63;;
20884;SDS011;10602;48.000;9.654;2023-07-13T12:52:09;3.37;;;1.80;;
20884;SDS011;10602;48.000;9.654;2023-07-13T12:54:33;2.60;;;1.77;;
20884;SDS011;10602;48.000;9.654;2023-07-13T12:57:02;3.40;;;1.73;;
20884;SDS011;10602;48.000;9.654;2023-07-13T12:59:33;6.87;;;2.17;;
20884;SDS011;10602;48.000;9.654;2023-07-13T13:02:02;2.60;;;1.70;;
20884;SDS011;10602;48.000;9.654;2023-07-13T13:04:31;4.33;;;1.90;;
20884;SDS011;10602;48.000;9.654;2023-07-13T13:07:02;2.23;;;1.80;;
20884;SDS011;10602;48.000;9.654;2023-07-13T13:09:32;2.73;;;1.70;;
20884;SDS011;10602;48.000;9.654;2023-07-13T13:11:59;3.40;;;1.70;;
20884;SDS011;10602;48.000;9.654;2023-07-13T13:14:27;3.23;;;1.80;;
20884;SDS011;10602;48.000;9.654;2023-07-13T13:16:54;3.20;;;1.80;;
20884;SDS011;10602;48.000;9.654;2023-07-13T13:19:23;4.43;;;1.77;;
20884;SDS011;10602;48.000;9.654;2023-07-13T13:21:54;2.33;;;1.90;;
20884;SDS011;10602;48.000;9.654;2023-07-13T13:24:24;4.10;;;2.10;;
20884;SDS011;10602;48.000;9.654;2023-07-13T13:26:53;5.90;;;1.80;;
20884;SDS011;10602;48.000;9.654;2023-07-13T13:29:24;2.73;;;1.70;;
20884;SDS011;10602;48.000;9.654;2023-07-13T13:31:52;3.50;;;1.83;;
20884;SDS011;10602;48.000;9.654;2023-07-13T13:34:21;4.00;;;2.10;;
20884;SDS011;10602;48.000;9.654;2023-07-13T13:36:52;4.20;;;1.87;;
20884;SDS011;10602;48.000;9.654;2023-07-13T13:39:21;2.50;;;1.73;;
20884;SDS011;10602;48.000;9.654;2023-07-13T13:41:51;3.10;;;1.80;;
20884;SDS011;10602;48.000;9.654;2023-07-13T13:44:20;2.40;;;1.70;;
20884;SDS011;10602;48.000;9.654;2023-07-13T13:46:51;3.73;;;1.90;;
20884;SDS011;10602;48.000;9.654;2023-07-13T13:49:29;2.83;;;1.63;;
20884;SDS011;10602;48.000;9.654;2023-07-13T13:51:53;4.87;;;1.83;;
20884;SDS011;10602;48.000;9.654;2023-07-13T13:54:21;3.47;;;2.00;;
20884;SDS011;10602;48.000;9.654;2023-07-13T13:56:51;2.53;;;1.80;;
20884;SDS011;10602;48.000;9.654;2023-07-13T13:59:19;3.03;;;2.03;;
20884;SDS011;10602;48.000;9.654;2023-07-13T14:01:47;3.90;;;2.20;;
20884;SDS011;10602;48.000;9.654;2023-07-13T14:04:17;4.27;;;2.00;;
20884;SDS011;10602;48.000;9.654;2023-07-13T14:06:46;4.80;;;2.00;;
20884;SDS011;10602;48.000;9.654;2023-07-13T14:09:15;4.00;;;2.10;;
20884;SDS011;10602;48.000;9.654;2023-07-13T14:11:45;2.10;;;1.70;;
20884;SDS011;10602;48.000;9.654;2023-07-13T14:14:17;3.10;;;1.80;;
20884;SDS011;10602;48.000;9.654;2023-07-13T14:16:45;2.67;;;1.53;;
20884;SDS011;10602;48.000;9.654;2023-07-13T14:19:15;3.53;;;1.97;;
20884;SDS011;10602;48.000;9.654;2023-07-13T14:21:42;3.33;;;2.00;;
20884;SDS011;10602;48.000;9.654;2023-07-13T14:24:10;3.37;;;2.10;;
20884;SDS011;10602;48.000;9.654;2023-07-13T14:26:38;4.07;;;2.20;;
20884;SDS011;10602;48.000;9.654;2023-07-13T14:29:14;3.37;;;2.27;;
20884;SDS011;10602;48.000;9.654;2023-07-13T14:31:43;3.63;;;2.10;;
20884;SDS011;10602;48.000;9.654;2023-07-13T14:34:11;2.50;;;2.10;;
20884;SDS011;10602;48.000;9.654;2023-07-13T14:36:41;5.43;;;2.20;;
20884;SDS011;10602;48.000;9.654;2023-07-13T14:39:12;3.63;;;2.00;;
20884;SDS011;10602;48.000;9.654;2023-07-13T14:41:42;3.17;;;2.20;;
20884;SDS011;10602;48.000;9.654;2023-07-13T14:44:16;2.40;;;2.20;;
20884;SDS011;10602;48.000;9.654;2023-07-13T14:46:40;18.53;;;3.00;;
20884;SDS011;10602;48.000;9.654;2023-07-13T14:52:01;3.27;;;1.90;;
20884;SDS011;10602;48.000;9.654;2023-07-13T14:54:40;9.57;;;2.80;;
20884;SDS011;10602;48.000;9.654;2023-07-13T14:57:10;3.90;;;2.17;;
20884;SDS011;10602;48.000;9.654;2023-07-13T14:59:41;15.50;;;3.03;;
20884;SDS011;10602;48.000;9.654;2023-07-13T15:02:15;2.93;;;2.00;;
20884;SDS011;10602;48.000;9.654;2023-07-13T15:04:45;3.47;;;2.23;;
20884;SDS011;10602;48.000;9.654;2023-07-13T15:07:12;3.57;;;2.23;;
20884;SDS011;10602;48.000;9.654;2023-07-13T15:09:41;4.63;;;2.20;;
20884;SDS011;10602;48.000;9.654;2023-07-13T15:12:09;4.90;;;2.10;;
20884;SDS011;10602;48.000;9.654;2023-07-13T15:14:36;4.07;;;2.27;;
20884;SDS011;10602;48.000;9.654;2023-07-13T15:17:04;3.77;;;2.00;;
20884;SDS011;10602;48.000;9.654;2023-07-13T15:19:32;3.27;;;1.80;;
20884;SDS011;10602;48.000;9.654;2023-07-13T15:22:00;3.40;;;2.07;;